createdAt,value
2023-03-29T00:00:20.244Z,30.85
2023-03-29T00:02:51.184Z,30.91
2023-03-29T00:05:26.888Z,30.95
2023-03-29T00:08:02.749Z,31.01
2023-03-29T00:10:34.543Z,31.07
2023-03-29T00:13:05.415Z,31.10
2023-03-29T00:15:35.852Z,31.14
2023-03-29T00:18:06.795Z,31.20
2023-03-29T00:20:37.771Z,31.22
2023-03-29T00:23:08.423Z,31.30
2023-03-29T00:25:39.100Z,31.50
2023-03-29T00:28:09.756Z,31.64
2023-03-29T00:30:42.140Z,31.70
2023-03-29T00:33:13.491Z,31.81
2023-03-29T00:35:46.040Z,31.84
2023-03-29T00:38:18.056Z,31.91
2023-03-29T00:40:48.959Z,32.03
2023-03-29T00:43:21.589Z,32.05
2023-03-29T00:45:52.496Z,32.12
2023-03-29T00:48:30.967Z,32.08
2023-03-29T00:51:08.187Z,32.22
2023-03-29T00:53:55.312Z,32.30
2023-03-29T00:56:36.167Z,32.33
2023-03-29T00:59:22.586Z,32.41
2023-03-29T01:01:55.549Z,32.47
2023-03-29T01:04:30.370Z,32.44
2023-03-29T01:07:19.597Z,32.57
2023-03-29T01:09:57.695Z,32.60
2023-03-29T01:12:33.612Z,32.63
2023-03-29T01:15:13.321Z,32.62
2023-03-29T01:17:51.203Z,32.69
2023-03-29T01:20:25.496Z,32.67
2023-03-29T01:23:22.240Z,32.63
2023-03-29T01:25:58.945Z,32.59
2023-03-29T01:28:46.796Z,32.55
2023-03-29T01:31:33.495Z,32.61
2023-03-29T01:34:14.534Z,32.65
2023-03-29T01:37:18.145Z,32.60
2023-03-29T01:39:49.380Z,32.73
2023-03-29T01:42:30.028Z,32.77
2023-03-29T01:45:32.687Z,32.87
2023-03-29T01:48:35.201Z,32.95
2023-03-29T01:51:11.449Z,32.90
2023-03-29T01:54:05.686Z,32.88
2023-03-29T01:56:41.309Z,32.81
2023-03-29T01:59:21.603Z,32.84
2023-03-29T02:01:54.717Z,32.81
2023-03-29T02:04:32.639Z,32.79
2023-03-29T02:07:06.268Z,32.87
2023-03-29T02:09:38.677Z,32.87
2023-03-29T02:12:11.191Z,32.94
2023-03-29T02:14:46.146Z,33.01
2023-03-29T02:17:28.712Z,33.01
2023-03-29T02:20:15.412Z,33.06
2023-03-29T02:22:57.938Z,33.03
2023-03-29T02:25:29.108Z,33.17
2023-03-29T02:28:00.309Z,33.23
2023-03-29T02:30:52.381Z,33.22
2023-03-29T02:33:32.625Z,33.23
2023-03-29T02:36:14.020Z,33.30
2023-03-29T02:38:44.942Z,33.25
2023-03-29T02:41:18.886Z,33.33
2023-03-29T02:43:50.116Z,33.36
2023-03-29T02:46:24.302Z,33.38
2023-03-29T02:48:56.587Z,33.45
2023-03-29T02:51:37.431Z,33.49
2023-03-29T02:54:23.062Z,33.46
2023-03-29T02:57:07.524Z,33.51
2023-03-29T02:59:39.676Z,33.57
2023-03-29T03:02:14.665Z,33.59
2023-03-29T03:04:46.400Z,33.63
2023-03-29T03:07:17.061Z,33.67
2023-03-29T03:09:48.714Z,33.72
2023-03-29T03:12:19.956Z,33.65
2023-03-29T03:14:51.518Z,33.74
2023-03-29T03:17:25.678Z,33.84
2023-03-29T03:19:56.335Z,33.94
2023-03-29T03:22:27.428Z,34.05
2023-03-29T03:24:58.780Z,34.06
2023-03-29T03:27:30.200Z,34.13
2023-03-29T03:30:01.241Z,34.19
2023-03-29T03:32:50.857Z,34.20
2023-03-29T03:35:24.753Z,34.20
2023-03-29T03:37:56.240Z,34.25
2023-03-29T03:40:28.536Z,34.23
2023-03-29T03:43:00.097Z,34.22
2023-03-29T03:45:31.085Z,34.22
2023-03-29T03:48:20.594Z,34.26
2023-03-29T03:50:55.096Z,34.33
2023-03-29T03:53:30.808Z,34.36
2023-03-29T03:56:17.542Z,34.45
2023-03-29T03:59:08.320Z,34.48
2023-03-29T04:01:48.331Z,34.54
2023-03-29T04:04:24.279Z,34.52
2023-03-29T04:07:05.837Z,34.58
2023-03-29T04:09:37.234Z,34.61
2023-03-29T04:12:28.418Z,34.67
2023-03-29T04:14:59.828Z,34.68
2023-03-29T04:17:31.784Z,34.78
2023-03-29T04:20:13.340Z,34.82
2023-03-29T04:22:44.808Z,34.90
2023-03-29T04:25:16.520Z,34.93
2023-03-29T04:27:54.167Z,34.99
2023-03-29T04:30:43.960Z,35.04
2023-03-29T04:33:19.455Z,35.11
2023-03-29T04:36:00.792Z,35.17
2023-03-29T04:38:37.057Z,35.16
2023-03-29T04:41:08.701Z,35.22
2023-03-29T04:43:58.049Z,35.32
2023-03-29T04:46:30.441Z,35.36
2023-03-29T04:49:39.977Z,35.41
2023-03-29T04:52:15.907Z,35.46
2023-03-29T04:54:48.672Z,35.51
2023-03-29T04:57:35.465Z,35.53
2023-03-29T05:00:16.304Z,35.58
2023-03-29T05:03:05.792Z,35.58
2023-03-29T05:05:42.427Z,35.52
2023-03-29T05:08:13.363Z,35.51
2023-03-29T05:11:11.770Z,35.47
2023-03-29T05:13:43.556Z,35.43
2023-03-29T05:16:14.986Z,35.43
2023-03-29T05:18:46.141Z,35.45
2023-03-29T05:21:17.236Z,35.44
2023-03-29T05:23:50.537Z,35.46
2023-03-29T05:26:48.741Z,35.47
2023-03-29T05:29:20.173Z,35.45
2023-03-29T05:31:57.544Z,35.42
2023-03-29T05:34:29.118Z,35.36
2023-03-29T05:37:02.744Z,35.41
2023-03-29T05:39:43.909Z,35.49
2023-03-29T05:42:16.651Z,35.52
2023-03-29T05:44:57.421Z,35.63
2023-03-29T05:47:29.618Z,35.68
2023-03-29T05:50:00.800Z,35.74
2023-03-29T05:52:31.900Z,35.78
2023-03-29T05:55:03.166Z,35.94
2023-03-29T05:57:38.550Z,36.03
2023-03-29T06:00:27.850Z,36.15
2023-03-29T06:03:17.978Z,36.09
2023-03-29T06:06:00.177Z,35.99
2023-03-29T06:08:32.885Z,35.94
2023-03-29T06:11:19.814Z,35.94
2023-03-29T06:14:08.690Z,35.88
2023-03-29T06:16:45.945Z,35.94
2023-03-29T06:19:18.434Z,36.04
2023-03-29T06:21:53.533Z,36.04
2023-03-29T06:24:31.086Z,36.10
2023-03-29T06:27:07.941Z,36.18
2023-03-29T06:29:38.785Z,36.28
2023-03-29T06:32:09.785Z,36.38
2023-03-29T06:34:59.532Z,36.57
2023-03-29T06:37:35.764Z,36.64
2023-03-29T06:40:28.675Z,36.76
2023-03-29T06:43:00.499Z,36.62
2023-03-29T06:45:43.726Z,36.48
2023-03-29T06:48:40.824Z,36.54
2023-03-29T06:51:12.461Z,36.41
2023-03-29T06:53:44.265Z,36.34
2023-03-29T06:56:17.020Z,36.32
2023-03-29T06:58:57.905Z,36.26
2023-03-29T07:01:48.201Z,36.20
2023-03-29T07:04:38.233Z,36.14
2023-03-29T07:07:45.047Z,35.99
2023-03-29T07:10:35.361Z,35.87
2023-03-29T07:13:24.872Z,35.98
2023-03-29T07:15:57.684Z,35.95
2023-03-29T07:18:45.254Z,35.92
2023-03-29T07:21:25.015Z,36.01
2023-03-29T07:23:56.716Z,36.05
2023-03-29T07:26:28.380Z,36.05
2023-03-29T07:29:02.376Z,35.97
2023-03-29T07:31:36.300Z,35.97
2023-03-29T07:34:30.997Z,35.97
2023-03-29T07:37:02.723Z,35.97
2023-03-29T07:39:34.758Z,35.93
2023-03-29T07:42:38.320Z,35.88
2023-03-29T07:45:12.729Z,35.82
2023-03-29T07:47:58.891Z,35.89
2023-03-29T07:50:35.943Z,36.01
2023-03-29T07:53:08.361Z,35.97
2023-03-29T07:55:39.597Z,35.97
2023-03-29T07:58:30.464Z,35.92
2023-03-29T08:01:02.012Z,35.86
2023-03-29T08:03:51.008Z,35.93
2023-03-29T08:06:23.420Z,35.93
2023-03-29T08:08:54.554Z,35.92
2023-03-29T08:11:25.767Z,35.80
2023-03-29T08:14:06.162Z,35.67
2023-03-29T08:17:09.762Z,35.54
2023-03-29T08:19:50.807Z,35.46
2023-03-29T08:22:29.131Z,35.45
2023-03-29T08:25:22.811Z,35.41
2023-03-29T08:27:56.573Z,35.36
2023-03-29T08:30:52.933Z,35.38
2023-03-29T08:33:23.703Z,35.36
2023-03-29T08:36:05.596Z,35.32
2023-03-29T08:38:39.861Z,35.27
2023-03-29T08:41:29.335Z,35.32
2023-03-29T08:44:30.444Z,35.29
2023-03-29T08:47:08.517Z,35.28
2023-03-29T08:49:52.053Z,35.28
2023-03-29T08:52:43.571Z,35.26
2023-03-29T08:55:51.835Z,35.20
2023-03-29T08:58:49.146Z,35.16
2023-03-29T09:01:25.582Z,35.13
2023-03-29T09:04:30.073Z,35.21
2023-03-29T09:07:25.339Z,35.10
2023-03-29T09:10:01.269Z,35.12
2023-03-29T09:13:15.928Z,35.19
2023-03-29T09:16:01.793Z,35.16
2023-03-29T09:19:03.971Z,35.09
2023-03-29T09:22:11.415Z,35.15
2023-03-29T09:25:08.769Z,35.08
2023-03-29T09:27:42.654Z,35.05
2023-03-29T09:30:42.845Z,35.11
2023-03-29T09:33:38.283Z,35.05
2023-03-29T09:36:45.011Z,35.06
2023-03-29T09:39:18.922Z,34.98
2023-03-29T09:42:10.562Z,35.02
2023-03-29T09:44:59.066Z,35.05
2023-03-29T09:47:49.641Z,34.95
2023-03-29T09:50:31.947Z,34.94
2023-03-29T09:53:06.974Z,34.89
2023-03-29T09:55:45.313Z,34.87
2023-03-29T09:58:32.069Z,34.74
2023-03-29T10:01:14.001Z,34.81
2023-03-29T10:03:55.907Z,34.79
2023-03-29T10:06:31.477Z,34.71
2023-03-29T10:09:05.595Z,34.74
2023-03-29T10:11:44.368Z,34.66
2023-03-29T10:14:43.564Z,34.58
2023-03-29T10:17:30.507Z,34.53
2023-03-29T10:20:04.984Z,34.49
2023-03-29T10:22:39.614Z,34.43
2023-03-29T10:25:16.352Z,34.45
2023-03-29T10:27:51.007Z,34.32
2023-03-29T10:30:25.638Z,34.29
2023-03-29T10:33:01.063Z,34.26
2023-03-29T10:35:46.637Z,34.21
2023-03-29T10:38:35.998Z,34.20
2023-03-29T10:41:11.913Z,34.11
2023-03-29T10:43:51.959Z,34.11
2023-03-29T10:46:31.440Z,33.99
2023-03-29T10:49:12.250Z,33.95
2023-03-29T10:51:49.015Z,33.94
2023-03-29T10:54:25.926Z,33.89
2023-03-29T10:57:00.690Z,33.91
2023-03-29T10:59:58.897Z,33.88
2023-03-29T11:02:54.670Z,33.82
2023-03-29T11:05:51.588Z,33.75
2023-03-29T11:08:39.434Z,33.77
2023-03-29T11:11:38.286Z,33.73
2023-03-29T11:14:23.851Z,33.68
2023-03-29T11:17:16.344Z,33.64
2023-03-29T11:20:14.269Z,33.64
2023-03-29T11:23:12.513Z,33.57
2023-03-29T11:26:15.560Z,33.48
2023-03-29T11:28:54.207Z,33.46
2023-03-29T11:31:42.641Z,33.44
2023-03-29T11:34:14.048Z,33.38
2023-03-29T11:37:03.808Z,33.37
2023-03-29T11:39:58.262Z,33.41
2023-03-29T11:42:36.079Z,33.37
2023-03-29T11:45:18.292Z,33.34
2023-03-29T11:47:54.080Z,33.29
2023-03-29T11:50:52.043Z,33.27
2023-03-29T11:53:30.469Z,33.30
2023-03-29T11:56:12.032Z,33.25
2023-03-29T11:58:49.191Z,33.24
2023-03-29T12:02:14.904Z,33.26
2023-03-29T12:05:02.241Z,33.23
2023-03-29T12:07:43.026Z,33.24
2023-03-29T12:10:39.446Z,33.15
2023-03-29T12:13:18.761Z,33.22
2023-03-29T12:16:17.057Z,33.26
2023-03-29T12:18:54.151Z,33.22
2023-03-29T12:21:31.480Z,33.15
2023-03-29T12:24:04.071Z,33.15
2023-03-29T12:26:44.190Z,33.16
2023-03-29T12:29:36.478Z,33.20
2023-03-29T12:32:36.072Z,33.11
2023-03-29T12:36:01.686Z,33.16
2023-03-29T12:39:00.547Z,33.05
2023-03-29T12:41:53.401Z,33.04
2023-03-29T12:45:01.460Z,33.02
2023-03-29T12:47:47.058Z,32.96
2023-03-29T12:50:31.144Z,32.97
2023-03-29T12:53:40.710Z,33.03
2023-03-29T12:56:23.074Z,32.92
2023-03-29T12:59:19.814Z,32.87
2023-03-29T13:02:21.983Z,32.93
2023-03-29T13:05:07.737Z,32.89
2023-03-29T13:07:51.942Z,32.84
2023-03-29T13:10:43.393Z,32.86
2023-03-29T13:13:24.983Z,32.79
2023-03-29T13:15:58.005Z,32.79
2023-03-29T13:18:49.164Z,32.80
2023-03-29T13:21:54.323Z,32.83
2023-03-29T13:24:32.364Z,32.80
2023-03-29T13:27:28.183Z,32.93
2023-03-29T13:30:12.813Z,32.94
2023-03-29T13:32:51.735Z,32.94
2023-03-29T13:35:34.101Z,32.95
2023-03-29T13:38:20.752Z,32.92
2023-03-29T13:41:04.249Z,32.97
2023-03-29T13:43:43.187Z,32.94
2023-03-29T13:46:43.652Z,33.02
2023-03-29T13:49:29.948Z,33.02
2023-03-29T13:52:17.905Z,33.01
2023-03-29T13:54:55.367Z,33.00
2023-03-29T13:57:35.762Z,32.98
2023-03-29T14:00:26.037Z,33.01
2023-03-29T14:03:03.110Z,32.97
2023-03-29T14:05:47.606Z,32.95
2023-03-29T14:08:29.226Z,32.97
2023-03-29T14:11:06.303Z,32.93
2023-03-29T14:13:38.570Z,32.93
2023-03-29T14:16:14.968Z,32.92
2023-03-29T14:18:47.309Z,32.94
2023-03-29T14:21:19.279Z,32.90
2023-03-29T14:23:57.458Z,32.92
2023-03-29T14:26:36.865Z,32.89
2023-03-29T14:29:11.643Z,32.88
2023-03-29T14:31:44.487Z,32.88
2023-03-29T14:34:17.773Z,32.86
2023-03-29T14:36:53.391Z,32.84
2023-03-29T14:39:25.414Z,32.83
2023-03-29T14:41:58.427Z,32.82
2023-03-29T14:44:32.973Z,32.83
2023-03-29T14:47:04.939Z,32.82
2023-03-29T14:49:36.895Z,32.78
2023-03-29T14:52:08.607Z,32.77
2023-03-29T14:54:51.465Z,32.77
2023-03-29T14:57:26.434Z,32.76
2023-03-29T15:00:03.174Z,32.76
2023-03-29T15:02:36.453Z,32.76
2023-03-29T15:05:08.927Z,32.73
2023-03-29T15:07:40.844Z,32.67
2023-03-29T15:10:19.675Z,32.72
2023-03-29T15:12:51.316Z,32.69
2023-03-29T15:15:22.515Z,32.71
2023-03-29T15:17:54.184Z,32.66
2023-03-29T15:20:28.973Z,32.65
2023-03-29T15:23:01.954Z,32.63
2023-03-29T15:25:39.557Z,32.62
2023-03-29T15:28:36.323Z,32.65
2023-03-29T15:31:20.205Z,32.66
2023-03-29T15:34:09.479Z,32.61
2023-03-29T15:36:43.197Z,32.56
2023-03-29T15:39:19.216Z,32.53
2023-03-29T15:41:52.627Z,32.47
2023-03-29T15:44:29.974Z,32.46
2023-03-29T15:47:01.566Z,32.46
2023-03-29T15:49:32.184Z,32.45
2023-03-29T15:52:02.972Z,32.40
2023-03-29T15:54:34.772Z,32.38
2023-03-29T15:57:08.311Z,32.37
2023-03-29T15:59:39.126Z,32.37
2023-03-29T16:02:14.806Z,32.34
2023-03-29T16:04:46.293Z,32.28
2023-03-29T16:07:19.024Z,32.25
2023-03-29T16:09:49.674Z,32.27
2023-03-29T16:12:20.923Z,32.24
2023-03-29T16:14:53.014Z,32.23
2023-03-29T16:17:23.920Z,32.23
2023-03-29T16:19:54.967Z,32.22
2023-03-29T16:22:25.879Z,32.18
2023-03-29T16:24:57.164Z,32.15
2023-03-29T16:27:29.753Z,32.13
2023-03-29T16:30:01.464Z,32.12
2023-03-29T16:32:35.691Z,32.12
2023-03-29T16:35:10.044Z,32.11
2023-03-29T16:37:41.919Z,32.10
2023-03-29T16:40:13.438Z,32.07
2023-03-29T16:42:44.420Z,32.05
2023-03-29T16:45:17.901Z,32.03
2023-03-29T16:47:54.350Z,31.99
2023-03-29T16:50:25.401Z,31.99
2023-03-29T16:52:56.119Z,31.97
2023-03-29T16:55:27.988Z,31.95
2023-03-29T16:57:58.926Z,31.94
2023-03-29T17:00:30.256Z,31.93
2023-03-29T17:03:04.256Z,31.92
2023-03-29T17:05:40.914Z,31.88
2023-03-29T17:08:11.836Z,31.89
2023-03-29T17:10:43.295Z,31.88
2023-03-29T17:13:14.677Z,31.86
2023-03-29T17:15:45.352Z,31.81
2023-03-29T17:18:16.714Z,31.80
2023-03-29T17:20:47.305Z,31.79
2023-03-29T17:23:18.824Z,31.78
2023-03-29T17:25:50.236Z,31.77
2023-03-29T17:28:20.924Z,31.79
2023-03-29T17:30:52.126Z,31.75
2023-03-29T17:33:26.910Z,31.73
2023-03-29T17:35:57.586Z,31.74
2023-03-29T17:38:30.599Z,31.73
2023-03-29T17:41:02.140Z,31.73
2023-03-29T17:43:33.632Z,31.68
2023-03-29T17:46:05.112Z,31.67
2023-03-29T17:48:35.714Z,31.63
2023-03-29T17:51:07.068Z,31.66
2023-03-29T17:53:38.386Z,31.63
2023-03-29T17:56:11.771Z,31.61
2023-03-29T17:58:42.475Z,31.59
2023-03-29T18:01:15.236Z,31.60
2023-03-29T18:03:46.152Z,31.58
2023-03-29T18:06:20.552Z,31.56
2023-03-29T18:08:54.082Z,31.52
2023-03-29T18:11:25.637Z,31.52
2023-03-29T18:13:59.067Z,31.48
2023-03-29T18:16:31.828Z,31.47
2023-03-29T18:19:02.551Z,31.45
2023-03-29T18:21:33.561Z,31.46
2023-03-29T18:24:04.529Z,31.43
2023-03-29T18:26:35.577Z,31.44
2023-03-29T18:29:18.421Z,31.45
2023-03-29T18:31:49.647Z,31.42
2023-03-29T18:34:21.216Z,31.42
2023-03-29T18:36:51.902Z,31.42
2023-03-29T18:39:25.954Z,31.38
2023-03-29T18:41:56.975Z,31.38
2023-03-29T18:44:28.382Z,31.37
2023-03-29T18:46:59.313Z,31.36
2023-03-29T18:49:31.580Z,31.33
2023-03-29T18:52:03.080Z,31.35
2023-03-29T18:54:34.266Z,31.31
2023-03-29T18:57:05.660Z,31.29
2023-03-29T18:59:39.179Z,31.29
2023-03-29T19:02:10.958Z,31.27
2023-03-29T19:04:42.236Z,31.29
2023-03-29T19:07:12.942Z,31.26
2023-03-29T19:09:43.567Z,31.25
2023-03-29T19:12:14.387Z,31.22
2023-03-29T19:14:45.162Z,31.18
2023-03-29T19:17:16.124Z,31.18
2023-03-29T19:19:47.072Z,31.15
2023-03-29T19:22:18.417Z,31.15
2023-03-29T19:24:49.381Z,31.13
2023-03-29T19:27:20.577Z,31.11
2023-03-29T19:29:51.788Z,31.08
2023-03-29T19:32:22.705Z,31.06
2023-03-29T19:34:53.616Z,31.04
2023-03-29T19:37:24.475Z,31.04
2023-03-29T19:39:56.528Z,31.02
2023-03-29T19:42:27.375Z,30.96
2023-03-29T19:44:58.618Z,30.97
2023-03-29T19:47:29.529Z,30.97
2023-03-29T19:50:01.119Z,30.98
2023-03-29T19:52:32.472Z,30.95
2023-03-29T19:55:03.474Z,30.93
2023-03-29T19:57:35.620Z,30.93
2023-03-29T20:00:09.089Z,30.88
2023-03-29T20:02:43.416Z,30.89
2023-03-29T20:05:14.921Z,30.86
2023-03-29T20:07:45.969Z,30.87
2023-03-29T20:10:17.808Z,30.85
2023-03-29T20:12:48.830Z,30.85
2023-03-29T20:15:19.983Z,30.83
2023-03-29T20:17:52.273Z,30.82
2023-03-29T20:20:25.142Z,30.81
2023-03-29T20:22:59.040Z,30.79
2023-03-29T20:25:33.143Z,30.82
2023-03-29T20:28:04.845Z,30.77
2023-03-29T20:30:38.309Z,30.79
2023-03-29T20:33:09.175Z,30.77
2023-03-29T20:35:39.705Z,30.76
2023-03-29T20:38:11.146Z,30.76
2023-03-29T20:40:45.815Z,30.76
2023-03-29T20:43:19.324Z,30.74
2023-03-29T20:45:53.984Z,30.71
2023-03-29T20:48:31.258Z,30.71
2023-03-29T20:51:04.029Z,30.69
2023-03-29T20:53:37.618Z,30.68
2023-03-29T20:56:09.003Z,30.65
2023-03-29T20:58:42.889Z,30.66
2023-03-29T21:01:15.223Z,30.65
2023-03-29T21:03:45.976Z,30.61
2023-03-29T21:06:17.295Z,30.59
2023-03-29T21:08:48.993Z,30.59
2023-03-29T21:11:20.108Z,30.58
2023-03-29T21:13:53.779Z,30.55
2023-03-29T21:16:26.008Z,30.55
2023-03-29T21:18:56.808Z,30.49
2023-03-29T21:21:28.006Z,30.49
2023-03-29T21:23:58.554Z,30.48
2023-03-29T21:26:29.834Z,30.47
2023-03-29T21:29:00.633Z,30.41
2023-03-29T21:31:34.516Z,30.41
2023-03-29T21:34:05.641Z,30.41
2023-03-29T21:36:36.741Z,30.40
2023-03-29T21:39:08.185Z,30.40
2023-03-29T21:41:38.955Z,30.37
2023-03-29T21:44:10.041Z,30.35
2023-03-29T21:46:41.430Z,30.34
2023-03-29T21:49:13.403Z,30.31
2023-03-29T21:51:45.342Z,30.33
2023-03-29T21:54:15.935Z,30.32
2023-03-29T21:56:48.696Z,30.32
2023-03-29T21:59:19.278Z,30.33
2023-03-29T22:01:49.821Z,30.31
2023-03-29T22:04:35.311Z,30.30
2023-03-29T22:07:11.521Z,30.31
2023-03-29T22:09:43.342Z,30.31
2023-03-29T22:12:14.733Z,30.28
2023-03-29T22:14:47.661Z,30.27
2023-03-29T22:17:18.297Z,30.26
2023-03-29T22:19:48.966Z,30.24
2023-03-29T22:22:20.272Z,30.23
2023-03-29T22:24:55.681Z,30.24
2023-03-29T22:27:26.512Z,30.24
2023-03-29T22:29:57.012Z,30.25
2023-03-29T22:32:28.023Z,30.23
2023-03-29T22:34:59.619Z,30.24
2023-03-29T22:37:30.669Z,30.22
2023-03-29T22:40:01.505Z,30.24
2023-03-29T22:42:33.046Z,30.23
2023-03-29T22:45:03.798Z,30.24
2023-03-29T22:47:36.361Z,30.24
2023-03-29T22:50:08.438Z,30.26
2023-03-29T22:52:39.655Z,30.26
2023-03-29T22:55:10.612Z,30.27
2023-03-29T22:57:42.562Z,30.28
2023-03-29T23:00:14.710Z,30.28
2023-03-29T23:02:45.164Z,30.28
2023-03-29T23:05:17.340Z,30.29
2023-03-29T23:07:47.964Z,30.34
2023-03-29T23:10:18.776Z,30.30
2023-03-29T23:12:52.878Z,30.30
2023-03-29T23:15:24.203Z,30.35
2023-03-29T23:17:55.483Z,30.27
2023-03-29T23:20:26.134Z,30.27
2023-03-29T23:22:57.195Z,30.29
2023-03-29T23:25:28.613Z,30.30
2023-03-29T23:28:00.927Z,30.29
2023-03-29T23:30:31.880Z,30.32
2023-03-29T23:33:03.400Z,30.40
2023-03-29T23:35:34.772Z,30.45
2023-03-29T23:38:06.712Z,30.52
2023-03-29T23:40:37.818Z,30.50
2023-03-29T23:43:09.977Z,30.52
2023-03-29T23:45:41.604Z,30.58
2023-03-29T23:48:12.783Z,30.64
2023-03-29T23:50:47.260Z,30.63
2023-03-29T23:53:18.027Z,30.68
2023-03-29T23:55:50.108Z,30.75
2023-03-29T23:58:20.544Z,30.74
